Abis Cuxhaven — PBYB — position and weather

sailwx.info

Track history (hours):
 
Tides and Currents Weather Stations Pressure Air Temp Water Temp Dewpoint Dewpoint Depression Visibility Wind Speed Wind Dir Waves Ship Positions

Abis Cuxhaven

Last reported at 2015-Jul-06 23:10 UTC. Time now 2015-Jul-07 06:47 UTC.
Position N 57°13' E 017°38'.

Length 114 m; draft 4.3 m.

Type: Cargo ship. MMSI: 246670000.

Date/timePositionNaut miles runAvg speedWind from/ knotsBaromVisibWave heightAir tempDewpointWater temp
2015-Jul-06 23:10N 57°13' E 017°38'116 8.9
2015-Jul-06 10:05N 55°39' E 015°32'610.0
2015-Jul-06 09:28N 55°36' E 015°23'910.2
2015-Jul-06 08:33N 55°32' E 015°07'1010.2
2015-Jul-06 07:33N 55°28' E 014°52'1010.1
2015-Jul-06 06:33N 55°21' E 014°37'1110.1
2015-Jul-06 05:27N 55°13' E 014°25'30 9.7
2015-Jul-06 02:19N 55°12' E 013°32'810.2
2015-Jul-06 01:33N 55°13' E 013°18'1010.2
2015-Jul-06 00:33N 55°14' E 013°01'1010.2
2015-Jul-05 23:33N 55°17' E 012°44'8 7.8
2015-Jul-05 22:33N 55°24' E 012°39'9 9.4
2015-Jul-05 21:33N 55°33' E 012°42'1010.4
2015-Jul-05 20:33N 55°44' E 012°41'1110.8
2015-Jul-05 19:33N 55°54' E 012°38'1010.0
2015-Jul-05 18:33N 56°04' E 012°36'10 9.6
2015-Jul-05 17:33N 56°10' E 012°23'1110.4
2015-Jul-05 16:33N 56°16' E 012°07'10 9.9
2015-Jul-05 15:33N 56°25' E 011°60'1110.9
2015-Jul-05 14:33N 56°35' E 011°55'1110.5
2015-Jul-05 13:33N 56°46' E 011°51'1010.4
2015-Jul-05 12:33N 56°55' E 011°45'1010.2
2015-Jul-05 11:33N 57°05' E 011°38'1010.3
2015-Jul-05 10:33N 57°15' E 011°31'1110.5
2015-Jul-05 09:33N 57°24' E 011°24'10 9.9
2015-Jul-05 08:33N 57°32' E 011°13'10 9.9
2015-Jul-05 07:33N 57°39' E 010°60'10 9.9
2015-Jul-05 06:33N 57°46' E 010°47'1010.1
2015-Jul-05 05:34N 57°48' E 010°28'1010.4
2015-Jul-05 04:33N 57°46' E 010°09'1010.4
2015-Jul-05 03:34N 57°43' E 009°50'1110.5
2015-Jul-05 02:33N 57°37' E 009°34'1110.5
2015-Jul-05 01:33N 57°31' E 009°17'1110.6
2015-Jul-05 00:33N 57°26' E 009°00'1010.5
2015-Jul-04 23:33N 57°21' E 008°44'1110.5
2015-Jul-04 22:32N 57°14' E 008°27'1010.7
2015-Jul-04 21:33N 57°07' E 008°14'1110.6
2015-Jul-04 20:32N 56°58' E 008°01'8810.6
2015-Jul-04 12:15N 55°33' E 007°26'710.0
2015-Jul-04 11:33N 55°28' E 007°35'9 9.2
2015-Jul-04 10:33N 55°24' E 007°49'10 9.8
2015-Jul-04 09:33N 55°24' E 008°07'10 9.8
2015-Jul-04 08:33N 55°29' E 008°22'3 3.3
2015-Jul-04 07:33N 55°27' E 008°27'0 0.0
2015-Jul-04 06:25N 55°27' E 008°27'0 0.0
2015-Jul-04 05:31N 55°27' E 008°27'0 0.0
2015-Jul-04 04:22N 55°27' E 008°27'0 0.0
2015-Jul-04 03:28N 55°27' E 008°27'0 0.0
2015-Jul-04 02:31N 55°27' E 008°27'0 0.0
2015-Jul-04 01:31N 55°27' E 008°27'0 0.0
2015-Jul-04 00:31N 55°27' E 008°27'0 0.0
2015-Jul-03 23:31N 55°27' E 008°27'0 0.0
2015-Jul-03 22:28N 55°27' E 008°27'0 0.0
2015-Jul-03 21:31N 55°27' E 008°27'0 0.0
2015-Jul-03 20:31N 55°27' E 008°27'0 0.0
2015-Jul-03 19:10N 55°27' E 008°27'0 0.0
2015-Jul-03 14:10N 55°27' E 008°27'0 0.0
2015-Jul-03 09:32N 55°27' E 008°27'0 0.0
2015-Jul-03 08:28N 55°27' E 008°27'0 0.0
2015-Jul-03 07:31N 55°27' E 008°27'0 0.0
2015-Jul-03 06:17N 55°27' E 008°27'0 0.0
2015-Jul-03 05:31N 55°27' E 008°27'0 0.0
2015-Jul-03 04:32N 55°27' E 008°27'0 0.0
2015-Jul-03 03:33N 55°27' E 008°27'0 0.0
2015-Jul-03 02:32N 55°27' E 008°27'0 0.0
2015-Jul-03 01:32N 55°27' E 008°27'0 0.0
2015-Jul-03 00:33N 55°27' E 008°27'0 0.0
2015-Jul-02 23:33N 55°27' E 008°27'0 0.0
2015-Jul-02 22:33N 55°27' E 008°27'0 0.0
2015-Jul-02 21:33N 55°27' E 008°27'0 0.0
2015-Jul-02 20:33N 55°27' E 008°27'0 0.0
2015-Jul-02 19:34N 55°27' E 008°27'0 0.0
2015-Jul-02 18:33N 55°27' E 008°27'0 0.0
2015-Jul-02 17:33N 55°27' E 008°27'0 0.0
2015-Jul-02 16:34N 55°27' E 008°27'0 0.0
2015-Jul-02 15:33N 55°27' E 008°27'0 0.0
2015-Jul-02 14:33N 55°27' E 008°27'0 0.0
2015-Jul-02 13:33N 55°27' E 008°27'0 0.0
2015-Jul-02 12:32N 55°27' E 008°27'0 0.0
2015-Jul-02 11:32N 55°27' E 008°27'0 0.0
2015-Jul-02 10:33N 55°27' E 008°27'0 0.0
2015-Jul-02 09:33N 55°27' E 008°27'0 0.4
2015-Jul-02 08:33N 55°27' E 008°26'5 4.9
2015-Jul-02 07:33N 55°27' E 008°18'7 7.2
2015-Jul-02 06:34N 55°23' E 008°08'9 8.8
2015-Jul-02 05:31N 55°16' E 007°57'7 7.0
2015-Jul-02 04:28N 55°10' E 007°48'7 5.6
2015-Jul-02 03:14N 55°05' E 007°41'13 7.5
2015-Jul-02 01:30N 54°52' E 007°37'5 5.3
2015-Jul-02 00:32N 54°47' E 007°37'23 7.0
2015-Jul-01 21:13N 54°24' E 007°33'5 6.8
2015-Jul-01 20:33N 54°19' E 007°32'7 6.6
2015-Jul-01 19:33N 54°14' E 007°38'1010.2
2015-Jul-01 18:32N 54°07' E 007°51'4 4.4
2015-Jul-01 17:33N 54°04' E 007°57'2210.7
2015-Jul-01 15:30N 53°58' E 008°33'1212.5
2015-Jul-01 14:33N 53°50' E 008°48'1110.8
2015-Jul-01 13:33N 53°53' E 009°06'3 2.5
2015-Jul-01 12:32N 53°53' E 009°10'0 0.0
2015-Jul-01 11:32N 53°53' E 009°10'0 0.0
2015-Jul-01 10:29N 53°53' E 009°10'0 0.1
2015-Jul-01 09:17N 53°53' E 009°11'0 0.0
2015-Jul-01 08:32N 53°53' E 009°11'0 0.0
2015-Jul-01 07:32N 53°53' E 009°11'0 0.0
2015-Jul-01 06:29N 53°53' E 009°11'0 0.0
2015-Jul-01 05:34N 53°53' E 009°11'0 0.0
2015-Jul-01 04:31N 53°53' E 009°11'0 0.0
2015-Jul-01 03:31N 53°53' E 009°11'0 0.0
2015-Jul-01 02:28N 53°53' E 009°11'0 0.0
2015-Jul-01 01:25N 53°53' E 009°11'0 0.0
2015-Jul-01 00:28N 53°53' E 009°11'0 0.0
2015-Jun-30 23:20N 53°53' E 009°11'0 0.0
2015-Jun-30 22:20N 53°53' E 009°11'0 0.0
2015-Jun-30 21:32N 53°53' E 009°11'0 0.0
2015-Jun-30 20:26N 53°53' E 009°11'0 0.0
2015-Jun-30 19:32N 53°53' E 009°11'0 0.0
2015-Jun-30 18:32N 53°53' E 009°11'0 0.0
2015-Jun-30 17:32N 53°53' E 009°11'0 0.0
2015-Jun-30 16:29N 53°53' E 009°11'0 0.0
2015-Jun-30 15:32N 53°53' E 009°11'0 0.0
2015-Jun-30 14:32N 53°53' E 009°11'0 0.0
2015-Jun-30 13:29N 53°53' E 009°11'0 0.0
2015-Jun-30 12:32N 53°53' E 009°11'0 0.0
2015-Jun-30 11:29N 53°53' E 009°11'0 0.0
2015-Jun-30 10:26N 53°53' E 009°11'0 0.0
2015-Jun-30 09:32N 53°53' E 009°11'3 2.6
2015-Jun-30 08:33N 53°53' E 009°07'1211.9
2015-Jun-30 07:33N 53°51' E 008°47'1211.6
2015-Jun-30 06:33N 53°58' E 008°32'1511.5
2015-Jun-30 05:16N 53°59' E 008°07'7 9.6
2015-Jun-30 04:33N 53°58' E 007°55'10 9.5
2015-Jun-30 03:32N 53°55' E 007°39'9 9.3
2015-Jun-30 02:33N 53°53' E 007°24'9 8.7
2015-Jun-30 01:33N 53°51' E 007°10'9 8.6
2015-Jun-30 00:33N 53°49' E 006°56'18 8.5
2015-Jun-29 22:29N 53°45' E 006°27'8 8.5
2015-Jun-29 21:33N 53°43' E 006°14'9 8.6
2015-Jun-29 20:33N 53°40' E 006°00'9 8.7
2015-Jun-29 19:33N 53°37' E 005°46'9 9.1
2015-Jun-29 18:33N 53°34' E 005°32'9 9.5
2015-Jun-29 17:33N 53°31' E 005°17'10 9.8
2015-Jun-29 16:33N 53°28' E 005°01'1111.1
2015-Jun-29 15:33N 53°24' E 004°44'1212.0
2015-Jun-29 14:33N 53°13' E 004°35'1212.3
2015-Jun-29 13:33N 53°02' E 004°25'1212.0
2015-Jun-29 12:33N 52°51' E 004°16'1111.4
2015-Jun-29 11:33N 52°43' E 004°03'1111.0
2015-Jun-29 10:33N 52°35' E 003°50'1110.9
2015-Jun-29 09:33N 52°28' E 003°37'10 9.9
2015-Jun-29 08:32N 52°20' E 003°27'13 9.5
2015-Jun-29 07:09N 52°10' E 003°13'38 9.5
2015-Jun-29 03:08N 51°41' E 002°32'2211.0
2015-Jun-29 01:10N 51°26' E 002°09'711.5
2015-Jun-29 00:33N 51°21' E 002°01'1212.1
2015-Jun-28 23:33N 51°12' E 001°47'1312.6
2015-Jun-28 22:33N 51°01' E 001°37'3113.1
2015-Jun-28 20:09N 50°36' E 001°08'1311.9
2015-Jun-28 19:05N 50°29' E 000°51'2312.4
2015-Jun-28 17:16N 50°21' E 000°17'912.4
2015-Jun-28 16:31N 50°19' E 000°03'1611.8
2015-Jun-28 15:11N 50°15' W 000°20'811.3
2015-Jun-28 14:30N 50°12' W 000°32'2310.1
2015-Jun-28 12:16N 50°06' W 001°06'7 9.1
2015-Jun-28 11:31N 50°04' W 001°16'9 8.9
2015-Jun-28 10:32N 50°01' W 001°29'10 9.1
2015-Jun-28 09:28N 49°58' W 001°43'3110.6
2015-Jun-28 06:32N 49°51' W 002°30'1412.0
2015-Jun-28 05:23N 49°47' W 002°51'1111.9
2015-Jun-28 04:25N 49°41' W 003°06'1212.0
2015-Jun-28 03:27N 49°35' W 003°21'2312.0
2015-Jun-28 01:32N 49°23' W 003°52'2711.5
2015-Jun-27 23:12N 49°11' W 004°28'811.2
2015-Jun-27 22:29N 49°07' W 004°38'1111.1
2015-Jun-27 21:28N 49°01' W 004°53'  
Track history (hours):
 
Tides and Currents Weather Stations Pressure Air Temp Water Temp Dewpoint Dewpoint Depression Visibility Wind Speed Wind Dir Waves Ship Positions

Abis Cuxhaven

Last reported at 2015-Jul-06 23:10 UTC. Time now 2015-Jul-07 06:47 UTC.
Position N 57°13' E 017°38'.

Length 114 m; draft 4.3 m.

Type: Cargo ship. MMSI: 246670000.

Date/timePositionNaut miles runAvg speedWind from/ knotsBaromVisibWave heightAir tempDewpointWater temp
2015-Jul-06 23:10N 57°13' E 017°38'116 8.9
2015-Jul-06 10:05N 55°39' E 015°32'610.0
2015-Jul-06 09:28N 55°36' E 015°23'910.2
2015-Jul-06 08:33N 55°32' E 015°07'1010.2
2015-Jul-06 07:33N 55°28' E 014°52'1010.1
2015-Jul-06 06:33N 55°21' E 014°37'1110.1
2015-Jul-06 05:27N 55°13' E 014°25'30 9.7
2015-Jul-06 02:19N 55°12' E 013°32'810.2
2015-Jul-06 01:33N 55°13' E 013°18'1010.2
2015-Jul-06 00:33N 55°14' E 013°01'1010.2
2015-Jul-05 23:33N 55°17' E 012°44'8 7.8
2015-Jul-05 22:33N 55°24' E 012°39'9 9.4
2015-Jul-05 21:33N 55°33' E 012°42'1010.4
2015-Jul-05 20:33N 55°44' E 012°41'1110.8
2015-Jul-05 19:33N 55°54' E 012°38'1010.0
2015-Jul-05 18:33N 56°04' E 012°36'10 9.6
2015-Jul-05 17:33N 56°10' E 012°23'1110.4
2015-Jul-05 16:33N 56°16' E 012°07'10 9.9
2015-Jul-05 15:33N 56°25' E 011°60'1110.9
2015-Jul-05 14:33N 56°35' E 011°55'1110.5
2015-Jul-05 13:33N 56°46' E 011°51'1010.4
2015-Jul-05 12:33N 56°55' E 011°45'1010.2
2015-Jul-05 11:33N 57°05' E 011°38'1010.3
2015-Jul-05 10:33N 57°15' E 011°31'1110.5
2015-Jul-05 09:33N 57°24' E 011°24'10 9.9
2015-Jul-05 08:33N 57°32' E 011°13'10 9.9
2015-Jul-05 07:33N 57°39' E 010°60'10 9.9
2015-Jul-05 06:33N 57°46' E 010°47'1010.1
2015-Jul-05 05:34N 57°48' E 010°28'1010.4
2015-Jul-05 04:33N 57°46' E 010°09'1010.4
2015-Jul-05 03:34N 57°43' E 009°50'1110.5
2015-Jul-05 02:33N 57°37' E 009°34'1110.5
2015-Jul-05 01:33N 57°31' E 009°17'1110.6
2015-Jul-05 00:33N 57°26' E 009°00'1010.5
2015-Jul-04 23:33N 57°21' E 008°44'1110.5
2015-Jul-04 22:32N 57°14' E 008°27'1010.7
2015-Jul-04 21:33N 57°07' E 008°14'1110.6
2015-Jul-04 20:32N 56°58' E 008°01'8810.6
2015-Jul-04 12:15N 55°33' E 007°26'710.0
2015-Jul-04 11:33N 55°28' E 007°35'9 9.2
2015-Jul-04 10:33N 55°24' E 007°49'10 9.8
2015-Jul-04 09:33N 55°24' E 008°07'10 9.8
2015-Jul-04 08:33N 55°29' E 008°22'3 3.3
2015-Jul-04 07:33N 55°27' E 008°27'0 0.0
2015-Jul-04 06:25N 55°27' E 008°27'0 0.0
2015-Jul-04 05:31N 55°27' E 008°27'0 0.0
2015-Jul-04 04:22N 55°27' E 008°27'0 0.0
2015-Jul-04 03:28N 55°27' E 008°27'0 0.0
2015-Jul-04 02:31N 55°27' E 008°27'0 0.0
2015-Jul-04 01:31N 55°27' E 008°27'0 0.0
2015-Jul-04 00:31N 55°27' E 008°27'0 0.0
2015-Jul-03 23:31N 55°27' E 008°27'0 0.0
2015-Jul-03 22:28N 55°27' E 008°27'0 0.0
2015-Jul-03 21:31N 55°27' E 008°27'0 0.0
2015-Jul-03 20:31N 55°27' E 008°27'0 0.0
2015-Jul-03 19:10N 55°27' E 008°27'0 0.0
2015-Jul-03 14:10N 55°27' E 008°27'0 0.0
2015-Jul-03 09:32N 55°27' E 008°27'0 0.0
2015-Jul-03 08:28N 55°27' E 008°27'0 0.0
2015-Jul-03 07:31N 55°27' E 008°27'0 0.0
2015-Jul-03 06:17N 55°27' E 008°27'0 0.0
2015-Jul-03 05:31N 55°27' E 008°27'0 0.0
2015-Jul-03 04:32N 55°27' E 008°27'0 0.0
2015-Jul-03 03:33N 55°27' E 008°27'0 0.0
2015-Jul-03 02:32N 55°27' E 008°27'0 0.0
2015-Jul-03 01:32N 55°27' E 008°27'0 0.0
2015-Jul-03 00:33N 55°27' E 008°27'0 0.0
2015-Jul-02 23:33N 55°27' E 008°27'0 0.0
2015-Jul-02 22:33N 55°27' E 008°27'0 0.0
2015-Jul-02 21:33N 55°27' E 008°27'0 0.0
2015-Jul-02 20:33N 55°27' E 008°27'0 0.0
2015-Jul-02 19:34N 55°27' E 008°27'0 0.0
2015-Jul-02 18:33N 55°27' E 008°27'0 0.0
2015-Jul-02 17:33N 55°27' E 008°27'0 0.0
2015-Jul-02 16:34N 55°27' E 008°27'0 0.0
2015-Jul-02 15:33N 55°27' E 008°27'0 0.0
2015-Jul-02 14:33N 55°27' E 008°27'0 0.0
2015-Jul-02 13:33N 55°27' E 008°27'0 0.0
2015-Jul-02 12:32N 55°27' E 008°27'0 0.0
2015-Jul-02 11:32N 55°27' E 008°27'0 0.0
2015-Jul-02 10:33N 55°27' E 008°27'0 0.0
2015-Jul-02 09:33N 55°27' E 008°27'0 0.4
2015-Jul-02 08:33N 55°27' E 008°26'5 4.9
2015-Jul-02 07:33N 55°27' E 008°18'7 7.2
2015-Jul-02 06:34N 55°23' E 008°08'9 8.8
2015-Jul-02 05:31N 55°16' E 007°57'7 7.0
2015-Jul-02 04:28N 55°10' E 007°48'7 5.6
2015-Jul-02 03:14N 55°05' E 007°41'13 7.5
2015-Jul-02 01:30N 54°52' E 007°37'5 5.3
2015-Jul-02 00:32N 54°47' E 007°37'23 7.0
2015-Jul-01 21:13N 54°24' E 007°33'5 6.8
2015-Jul-01 20:33N 54°19' E 007°32'7 6.6
2015-Jul-01 19:33N 54°14' E 007°38'1010.2
2015-Jul-01 18:32N 54°07' E 007°51'4 4.4
2015-Jul-01 17:33N 54°04' E 007°57'2210.7
2015-Jul-01 15:30N 53°58' E 008°33'1212.5
2015-Jul-01 14:33N 53°50' E 008°48'1110.8
2015-Jul-01 13:33N 53°53' E 009°06'3 2.5
2015-Jul-01 12:32N 53°53' E 009°10'0 0.0
2015-Jul-01 11:32N 53°53' E 009°10'0 0.0
2015-Jul-01 10:29N 53°53' E 009°10'0 0.1
2015-Jul-01 09:17N 53°53' E 009°11'0 0.0
2015-Jul-01 08:32N 53°53' E 009°11'0 0.0
2015-Jul-01 07:32N 53°53' E 009°11'0 0.0
2015-Jul-01 06:29N 53°53' E 009°11'0 0.0
2015-Jul-01 05:34N 53°53' E 009°11'0 0.0
2015-Jul-01 04:31N 53°53' E 009°11'0 0.0
2015-Jul-01 03:31N 53°53' E 009°11'0 0.0
2015-Jul-01 02:28N 53°53' E 009°11'0 0.0
2015-Jul-01 01:25N 53°53' E 009°11'0 0.0
2015-Jul-01 00:28N 53°53' E 009°11'0 0.0
2015-Jun-30 23:20N 53°53' E 009°11'0 0.0
2015-Jun-30 22:20N 53°53' E 009°11'0 0.0
2015-Jun-30 21:32N 53°53' E 009°11'0 0.0
2015-Jun-30 20:26N 53°53' E 009°11'0 0.0
2015-Jun-30 19:32N 53°53' E 009°11'0 0.0
2015-Jun-30 18:32N 53°53' E 009°11'0 0.0
2015-Jun-30 17:32N 53°53' E 009°11'0 0.0
2015-Jun-30 16:29N 53°53' E 009°11'0 0.0
2015-Jun-30 15:32N 53°53' E 009°11'0 0.0
2015-Jun-30 14:32N 53°53' E 009°11'0 0.0
2015-Jun-30 13:29N 53°53' E 009°11'0 0.0
2015-Jun-30 12:32N 53°53' E 009°11'0 0.0
2015-Jun-30 11:29N 53°53' E 009°11'0 0.0
2015-Jun-30 10:26N 53°53' E 009°11'0 0.0
2015-Jun-30 09:32N 53°53' E 009°11'3 2.6
2015-Jun-30 08:33N 53°53' E 009°07'1211.9
2015-Jun-30 07:33N 53°51' E 008°47'1211.6
2015-Jun-30 06:33N 53°58' E 008°32'1511.5
2015-Jun-30 05:16N 53°59' E 008°07'7 9.6
2015-Jun-30 04:33N 53°58' E 007°55'10 9.5
2015-Jun-30 03:32N 53°55' E 007°39'9 9.3
2015-Jun-30 02:33N 53°53' E 007°24'9 8.7
2015-Jun-30 01:33N 53°51' E 007°10'9 8.6
2015-Jun-30 00:33N 53°49' E 006°56'18 8.5
2015-Jun-29 22:29N 53°45' E 006°27'8 8.5
2015-Jun-29 21:33N 53°43' E 006°14'9 8.6
2015-Jun-29 20:33N 53°40' E 006°00'9 8.7
2015-Jun-29 19:33N 53°37' E 005°46'9 9.1
2015-Jun-29 18:33N 53°34' E 005°32'9 9.5
2015-Jun-29 17:33N 53°31' E 005°17'10 9.8
2015-Jun-29 16:33N 53°28' E 005°01'1111.1
2015-Jun-29 15:33N 53°24' E 004°44'1212.0
2015-Jun-29 14:33N 53°13' E 004°35'1212.3
2015-Jun-29 13:33N 53°02' E 004°25'1212.0
2015-Jun-29 12:33N 52°51' E 004°16'1111.4
2015-Jun-29 11:33N 52°43' E 004°03'1111.0
2015-Jun-29 10:33N 52°35' E 003°50'1110.9
2015-Jun-29 09:33N 52°28' E 003°37'10 9.9
2015-Jun-29 08:32N 52°20' E 003°27'13 9.5
2015-Jun-29 07:09N 52°10' E 003°13'38 9.5
2015-Jun-29 03:08N 51°41' E 002°32'2211.0
2015-Jun-29 01:10N 51°26' E 002°09'711.5
2015-Jun-29 00:33N 51°21' E 002°01'1212.1
2015-Jun-28 23:33N 51°12' E 001°47'1312.6
2015-Jun-28 22:33N 51°01' E 001°37'3113.1
2015-Jun-28 20:09N 50°36' E 001°08'1311.9
2015-Jun-28 19:05N 50°29' E 000°51'2312.4
2015-Jun-28 17:16N 50°21' E 000°17'912.4
2015-Jun-28 16:31N 50°19' E 000°03'1611.8
2015-Jun-28 15:11N 50°15' W 000°20'811.3
2015-Jun-28 14:30N 50°12' W 000°32'2310.1
2015-Jun-28 12:16N 50°06' W 001°06'7 9.1
2015-Jun-28 11:31N 50°04' W 001°16'9 8.9
2015-Jun-28 10:32N 50°01' W 001°29'10 9.1
2015-Jun-28 09:28N 49°58' W 001°43'3110.6
2015-Jun-28 06:32N 49°51' W 002°30'1412.0
2015-Jun-28 05:23N 49°47' W 002°51'1111.9
2015-Jun-28 04:25N 49°41' W 003°06'1212.0
2015-Jun-28 03:27N 49°35' W 003°21'2312.0
2015-Jun-28 01:32N 49°23' W 003°52'2711.5
2015-Jun-27 23:12N 49°11' W 004°28'811.2
2015-Jun-27 22:29N 49°07' W 004°38'1111.1
2015-Jun-27 21:28N 49°01' W 004°53'  

Dump ship's entire track history